createdAt,value
2018-05-12T00:02:12.665Z,66.21
2018-05-12T00:04:39.090Z,66.10
2018-05-12T00:07:05.344Z,66.20
2018-05-12T00:09:31.904Z,66.02
2018-05-12T00:11:58.179Z,65.67
2018-05-12T00:14:24.450Z,65.43
2018-05-12T00:16:50.836Z,65.13
2018-05-12T00:19:17.063Z,65.10
2018-05-12T00:21:43.626Z,65.27
2018-05-12T00:24:09.879Z,65.93
2018-05-12T00:26:36.170Z,66.01
2018-05-12T00:29:02.675Z,66.49
2018-05-12T00:31:28.910Z,66.51
2018-05-12T00:33:55.427Z,66.56
2018-05-12T00:36:21.683Z,66.92
2018-05-12T00:38:47.948Z,67.11
2018-05-12T00:41:14.343Z,67.22
2018-05-12T00:43:40.641Z,67.36
2018-05-12T00:46:06.938Z,67.36
2018-05-12T00:48:33.221Z,67.29
2018-05-12T00:50:59.716Z,67.32
2018-05-12T00:53:25.971Z,67.02
2018-05-12T00:55:52.325Z,66.88
2018-05-12T00:58:18.750Z,67.21
2018-05-12T01:00:45.107Z,67.38
2018-05-12T01:03:11.771Z,67.21
2018-05-12T01:05:38.051Z,66.81
2018-05-12T01:08:04.589Z,66.95
2018-05-12T01:10:30.884Z,67.06
2018-05-12T01:12:57.111Z,67.11
2018-05-12T01:15:23.704Z,67.27
2018-05-12T01:17:50.016Z,67.30
2018-05-12T01:20:16.392Z,67.24
2018-05-12T01:22:42.783Z,67.30
2018-05-12T01:25:09.016Z,67.36
2018-05-12T01:27:35.683Z,67.15
2018-05-12T01:30:01.943Z,67.03
2018-05-12T01:32:28.368Z,66.66
2018-05-12T01:34:54.715Z,66.64
2018-05-12T01:37:22.995Z,66.47
2018-05-12T01:39:49.298Z,66.38
2018-05-12T01:42:15.527Z,66.54
2018-05-12T01:44:41.988Z,66.60
2018-05-12T01:47:08.255Z,66.60
2018-05-12T01:49:34.618Z,66.36
2018-05-12T01:52:00.863Z,66.47
2018-05-12T01:54:27.223Z,66.49
2018-05-12T01:56:53.752Z,66.57
2018-05-12T01:59:20.019Z,66.74
2018-05-12T02:01:46.455Z,66.72
2018-05-12T02:04:12.785Z,66.62
2018-05-12T02:06:39.016Z,66.70
2018-05-12T02:09:05.631Z,66.56
2018-05-12T02:11:32.071Z,66.27
2018-05-12T02:13:58.518Z,66.32
2018-05-12T02:16:24.815Z,66.34
2018-05-12T02:18:51.167Z,66.38
2018-05-12T02:21:17.771Z,66.18
2018-05-12T02:23:44.087Z,66.18
2018-05-12T02:26:10.524Z,66.11
2018-05-12T02:28:36.803Z,66.23
2018-05-12T02:31:03.117Z,65.91
2018-05-12T02:33:29.671Z,65.98
2018-05-12T02:35:55.910Z,65.75
2018-05-12T02:38:22.351Z,65.30
2018-05-12T02:40:48.647Z,64.95
2018-05-12T02:43:14.890Z,64.77
2018-05-12T02:45:41.521Z,64.86
2018-05-12T02:48:07.784Z,64.68
2018-05-12T02:50:34.195Z,64.70
2018-05-12T02:53:00.683Z,64.51
2018-05-12T02:55:26.914Z,64.29
2018-05-12T02:57:53.505Z,64.23
2018-05-12T03:00:19.795Z,64.58
2018-05-12T03:02:46.156Z,64.89
2018-05-12T03:05:12.595Z,65.27
2018-05-12T03:07:38.847Z,65.52
2018-05-12T03:10:05.463Z,65.51
2018-05-12T03:12:31.763Z,65.23
2018-05-12T03:14:58.174Z,65.27
2018-05-12T03:17:24.539Z,65.05
2018-05-12T03:19:50.884Z,65.29
2018-05-12T03:22:17.502Z,65.51
2018-05-12T03:24:43.841Z,65.63
2018-05-12T03:27:10.175Z,65.62
2018-05-12T03:29:36.597Z,65.57
2018-05-12T03:32:02.830Z,65.24
2018-05-12T03:34:29.378Z,64.87
2018-05-12T03:36:55.660Z,64.95
2018-05-12T03:39:21.966Z,65.01
2018-05-12T03:41:48.341Z,65.05
2018-05-12T03:44:14.636Z,65.04
2018-05-12T03:46:41.202Z,64.97
2018-05-12T03:49:07.522Z,64.82
2018-05-12T03:51:33.821Z,64.55
2018-05-12T03:54:00.363Z,64.66
2018-05-12T03:56:26.588Z,64.62
2018-05-12T03:58:53.258Z,64.68
2018-05-12T04:01:19.602Z,64.69
2018-05-12T04:03:45.902Z,64.82
2018-05-12T04:06:24.320Z,64.81
2018-05-12T04:09:02.794Z,64.27
2018-05-12T04:11:41.449Z,64.13
2018-05-12T04:14:07.687Z,64.07
2018-05-12T04:16:33.997Z,63.87
2018-05-12T04:19:00.438Z,63.82
2018-05-12T04:21:28.023Z,63.69
2018-05-12T04:23:54.449Z,63.72
2018-05-12T06:14:44.746Z,56.95
2018-05-12T06:17:10.984Z,56.98
2018-05-12T06:19:37.240Z,56.82
2018-05-12T06:22:03.577Z,56.82
2018-05-12T06:24:29.808Z,56.84
2018-05-12T06:26:56.076Z,56.71
2018-05-12T06:29:22.319Z,56.51
2018-05-12T06:31:48.622Z,56.47
2018-05-12T06:34:14.880Z,56.51
2018-05-12T06:36:41.154Z,56.78
2018-05-12T06:39:07.492Z,56.81
2018-05-12T06:41:33.787Z,56.89
2018-05-12T06:44:00.074Z,57.24
2018-05-12T06:46:26.307Z,57.32
2018-05-12T06:48:52.573Z,57.53
2018-05-12T06:51:18.876Z,57.99
2018-05-12T06:53:46.187Z,58.00
2018-05-12T06:56:12.469Z,58.01
2018-05-12T06:58:38.720Z,58.61
2018-05-12T07:01:04.999Z,58.71
2018-05-12T07:03:31.271Z,58.59
2018-05-12T07:05:57.591Z,58.68
2018-05-12T07:08:23.848Z,59.06
2018-05-12T07:10:50.088Z,58.84
2018-05-12T07:13:16.741Z,58.67
2018-05-12T07:15:42.978Z,58.51
2018-05-12T07:18:09.243Z,58.18
2018-05-12T07:20:35.528Z,57.94
2018-05-12T07:23:01.766Z,57.68
2018-05-12T07:25:28.059Z,57.76
2018-05-12T07:27:54.303Z,57.44
2018-05-12T07:30:20.568Z,57.20
2018-05-12T07:32:46.855Z,56.48
2018-05-12T07:35:14.184Z,56.07
2018-05-12T07:37:40.443Z,55.65
2018-05-12T07:40:06.735Z,54.60
2018-05-12T07:42:32.995Z,53.81
2018-05-12T07:44:59.293Z,52.59
2018-05-12T07:47:25.534Z,53.68
2018-05-12T07:49:51.892Z,52.64
2018-05-12T07:52:18.139Z,52.50
2018-05-12T07:54:44.410Z,51.22
2018-05-12T07:57:10.707Z,51.06
2018-05-12T07:59:37.160Z,50.03
2018-05-12T08:02:03.412Z,49.15
2018-05-12T08:04:29.740Z,48.39
2018-05-12T08:06:56.163Z,49.59
2018-05-12T08:09:22.424Z,49.08
2018-05-12T08:11:48.696Z,48.44
2018-05-12T08:14:14.978Z,49.33
2018-05-12T08:16:41.216Z,50.00
2018-05-12T08:19:07.459Z,49.68
2018-05-12T08:21:33.769Z,49.55
2018-05-12T08:24:00.027Z,48.62
2018-05-12T08:26:26.371Z,49.69
2018-05-12T08:28:52.619Z,49.04
2018-05-12T08:31:18.872Z,48.81
2018-05-12T08:33:45.155Z,48.14
2018-05-12T08:36:11.451Z,49.23
2018-05-12T08:38:37.759Z,49.71
2018-05-12T08:41:04.006Z,48.76
2018-05-12T08:43:30.255Z,47.27
2018-05-12T08:45:56.635Z,47.53
2018-05-12T08:48:22.951Z,48.11
2018-05-12T08:50:49.194Z,48.22
2018-05-12T08:53:15.784Z,48.87
2018-05-12T08:55:42.085Z,49.50
2018-05-12T08:58:08.429Z,49.44
2018-05-12T09:00:34.822Z,48.83
2018-05-12T09:03:01.081Z,48.13
2018-05-12T09:05:27.298Z,47.82
2018-05-12T09:07:53.526Z,48.33
2018-05-12T09:10:19.946Z,47.98
2018-05-12T09:12:46.339Z,46.98
2018-05-12T09:15:12.591Z,44.05
2018-05-12T09:17:38.928Z,43.80
2018-05-12T09:20:05.159Z,44.66
2018-05-12T09:22:31.527Z,43.92
2018-05-12T09:24:57.776Z,42.55
2018-05-12T09:27:24.186Z,42.36
2018-05-12T09:29:50.602Z,42.77
2018-05-12T09:32:16.830Z,42.31
2018-05-12T09:34:43.287Z,38.62
2018-05-12T09:37:09.667Z,38.45
2018-05-12T09:39:35.892Z,39.86
2018-05-12T09:42:02.135Z,40.13
2018-05-12T09:44:28.440Z,40.79
2018-05-12T09:46:54.742Z,40.26
2018-05-12T09:49:20.967Z,38.77
2018-05-12T09:51:47.270Z,35.07
2018-05-12T09:54:13.507Z,35.68
2018-05-12T09:56:39.819Z,36.11
2018-05-12T09:59:06.188Z,37.08
2018-05-12T10:01:32.426Z,36.63
2018-05-12T10:03:58.751Z,35.17
2018-05-12T10:06:25.024Z,35.43
2018-05-12T10:08:51.259Z,35.80
2018-05-12T10:11:17.534Z,35.72
2018-05-12T10:13:43.771Z,34.29
2018-05-12T10:16:10.048Z,31.78
2018-05-12T10:18:36.356Z,30.93
2018-05-12T10:21:02.611Z,29.71
2018-05-12T10:23:28.877Z,29.33
2018-05-12T10:25:55.126Z,28.58
2018-05-12T10:28:21.438Z,28.88
2018-05-12T10:30:47.675Z,27.48
2018-05-12T10:33:13.920Z,28.42
2018-05-12T10:35:40.195Z,29.84
2018-05-12T10:38:06.435Z,28.51
2018-05-12T10:40:32.715Z,28.83
2018-05-12T10:42:58.959Z,28.69
2018-05-12T10:45:25.256Z,27.84
2018-05-12T10:47:51.474Z,26.98
2018-05-12T10:50:17.722Z,26.29
2018-05-12T10:52:43.959Z,26.59
2018-05-12T10:55:10.200Z,25.65
2018-05-12T10:57:36.504Z,25.87
2018-05-12T11:00:02.795Z,25.59
2018-05-12T11:02:29.082Z,26.19
2018-05-12T11:04:55.342Z,27.47
2018-05-12T11:07:21.991Z,28.24
2018-05-12T11:09:48.346Z,28.51
2018-05-12T11:12:14.614Z,29.01
2018-05-12T11:14:40.867Z,30.12
2018-05-12T11:17:07.211Z,28.71
2018-05-12T11:19:33.444Z,29.89
2018-05-12T11:21:59.817Z,30.23
2018-05-12T11:24:26.026Z,30.43
2018-05-12T11:26:52.263Z,31.47
2018-05-12T11:29:18.539Z,28.60
2018-05-12T11:31:44.802Z,27.89
2018-05-12T11:34:11.114Z,27.60
2018-05-12T11:36:37.339Z,26.43
2018-05-12T11:39:03.719Z,26.14
2018-05-12T11:41:30.011Z,26.89
2018-05-12T11:43:56.248Z,28.60
2018-05-12T11:46:22.539Z,28.49
2018-05-12T11:48:48.799Z,29.95
2018-05-12T11:51:15.082Z,28.26
2018-05-12T11:53:41.370Z,27.76
2018-05-12T11:56:07.639Z,25.73
2018-05-12T11:58:33.903Z,24.78
2018-05-12T12:01:00.176Z,25.89
2018-05-12T12:03:26.464Z,28.00
2018-05-12T12:05:52.800Z,29.01
2018-05-12T12:08:19.271Z,30.31
2018-05-12T12:10:45.569Z,30.20
2018-05-12T12:13:11.851Z,30.69
2018-05-12T12:15:38.112Z,31.05
2018-05-12T12:18:04.411Z,31.64
2018-05-12T12:20:30.734Z,29.62
2018-05-12T12:22:57.007Z,29.10
2018-05-12T12:25:23.287Z,28.90
2018-05-12T12:27:49.550Z,30.98
2018-05-12T12:30:15.883Z,30.03
2018-05-12T12:32:42.121Z,27.52
2018-05-12T12:35:08.395Z,25.69
2018-05-12T12:37:34.624Z,26.38
2018-05-12T12:40:01.108Z,26.39
2018-05-12T12:42:27.366Z,26.75
2018-05-12T12:44:53.651Z,24.75
2018-05-12T12:47:19.923Z,23.60
2018-05-12T12:49:46.298Z,22.66
2018-05-12T12:52:12.631Z,23.89
2018-05-12T12:54:38.891Z,24.64
2018-05-12T12:57:05.201Z,23.69
2018-05-12T12:59:31.467Z,24.18
2018-05-12T13:01:57.784Z,24.25
2018-05-12T13:04:24.087Z,24.40
2018-05-12T13:06:50.362Z,24.15
2018-05-12T13:09:16.631Z,22.77
2018-05-12T13:11:42.894Z,21.44
2018-05-12T13:14:09.122Z,21.13
2018-05-12T13:16:35.375Z,23.25
2018-05-12T13:19:01.642Z,25.45
2018-05-12T13:21:27.878Z,25.03
2018-05-12T13:23:54.167Z,24.51
2018-05-12T13:26:20.451Z,22.43
2018-05-12T13:28:46.707Z,21.27
2018-05-12T13:31:12.996Z,22.39
2018-05-12T13:33:39.352Z,24.57
2018-05-12T13:36:05.695Z,24.67
2018-05-12T13:38:31.956Z,24.22
2018-05-12T13:40:58.211Z,23.29
2018-05-12T13:43:24.513Z,25.18
2018-05-12T13:45:50.754Z,26.38
2018-05-12T13:48:17.033Z,24.53
2018-05-12T13:50:43.336Z,23.07
2018-05-12T13:53:09.665Z,23.71
2018-05-12T13:55:36.177Z,22.18
2018-05-12T13:58:02.398Z,22.07
2018-05-12T14:00:28.659Z,24.60
2018-05-12T14:02:54.959Z,26.49
2018-05-12T14:05:21.287Z,25.99
2018-05-12T14:07:47.555Z,24.55
2018-05-12T14:10:13.908Z,24.77
2018-05-12T14:12:40.175Z,24.49
2018-05-12T14:15:06.403Z,25.24
2018-05-12T14:17:32.622Z,23.94
2018-05-12T14:19:58.927Z,22.38
2018-05-12T14:22:25.191Z,22.71
2018-05-12T14:24:51.488Z,24.86
2018-05-12T14:27:18.174Z,23.28
2018-05-12T14:29:44.448Z,21.97
2018-05-12T14:32:10.894Z,21.41
2018-05-12T14:34:37.242Z,20.51
2018-05-12T14:37:03.602Z,20.81
2018-05-12T14:39:29.847Z,22.93
2018-05-12T14:41:57.217Z,25.19
2018-05-12T14:44:23.515Z,26.22
2018-05-12T14:46:49.970Z,25.44
2018-05-12T14:49:16.243Z,26.60
2018-05-12T14:51:42.540Z,26.33
2018-05-12T14:54:08.917Z,24.99
2018-05-12T14:56:35.155Z,26.10
2018-05-12T14:59:01.397Z,28.02
2018-05-12T15:01:28.046Z,28.69
2018-05-12T15:03:54.338Z,29.92
2018-05-12T15:06:20.630Z,30.14
2018-05-12T15:08:46.894Z,31.28
2018-05-12T15:11:13.204Z,29.73
2018-05-12T15:13:39.441Z,28.96
2018-05-12T15:16:05.765Z,28.23
2018-05-12T15:18:32.000Z,28.70
2018-05-12T15:20:58.289Z,30.05
2018-05-12T15:23:24.583Z,31.19
2018-05-12T15:25:50.853Z,31.65
2018-05-12T15:28:17.258Z,31.50
2018-05-12T15:30:43.532Z,31.85
2018-05-12T15:33:09.755Z,31.66
2018-05-12T15:35:35.983Z,32.21
2018-05-12T15:38:02.241Z,32.38
2018-05-12T15:40:28.515Z,32.28
2018-05-12T15:42:54.887Z,32.83
2018-05-12T15:45:21.107Z,33.29
2018-05-12T15:47:47.401Z,33.27
2018-05-12T15:50:13.665Z,33.15
2018-05-12T15:52:39.945Z,33.88
2018-05-12T15:55:06.194Z,34.41
2018-05-12T15:57:32.514Z,33.85
2018-05-12T15:59:58.764Z,34.21
2018-05-12T16:02:25.028Z,34.25
2018-05-12T16:04:51.313Z,34.96
2018-05-12T16:07:17.582Z,34.94
2018-05-12T16:09:43.855Z,35.35
2018-05-12T16:12:10.260Z,35.22
2018-05-12T16:14:36.464Z,35.02
2018-05-12T16:17:02.763Z,35.16
2018-05-12T16:19:29.047Z,35.65
2018-05-12T16:21:55.316Z,35.43
2018-05-12T16:24:21.579Z,35.45
2018-05-12T16:26:47.844Z,35.58
2018-05-12T16:29:14.086Z,35.79
2018-05-12T16:31:40.478Z,36.10
2018-05-12T16:34:06.729Z,35.95
2018-05-12T16:36:33.064Z,36.60
2018-05-12T16:38:59.375Z,36.35
2018-05-12T16:41:25.655Z,36.38
2018-05-12T16:43:51.914Z,36.33
2018-05-12T16:46:18.154Z,36.00
2018-05-12T16:48:44.715Z,36.56
2018-05-12T16:51:11.086Z,36.50
2018-05-12T16:53:37.246Z,36.57
2018-05-12T16:56:03.535Z,36.85
2018-05-12T16:58:29.969Z,36.67
2018-05-12T17:00:56.270Z,37.16
2018-05-12T17:03:22.526Z,37.45
2018-05-12T17:05:48.760Z,37.45
2018-05-12T17:08:15.023Z,37.88
2018-05-12T17:10:41.269Z,38.15
2018-05-12T17:13:07.575Z,38.54
2018-05-12T17:15:34.311Z,38.40
2018-05-12T17:18:00.630Z,38.57
2018-05-12T17:20:26.943Z,38.74
2018-05-12T17:22:53.254Z,38.84
2018-05-12T17:25:19.633Z,39.35
2018-05-12T17:27:45.894Z,39.61
2018-05-12T17:30:12.208Z,39.96
2018-05-12T17:32:38.509Z,39.88
2018-05-12T17:35:04.859Z,40.00
2018-05-12T17:37:31.118Z,40.13
2018-05-12T17:39:57.431Z,40.21
2018-05-12T17:42:23.831Z,40.38
2018-05-12T17:44:50.140Z,40.33
2018-05-12T17:47:16.451Z,40.63
2018-05-12T17:49:42.704Z,40.38
2018-05-12T17:52:09.030Z,40.70
2018-05-12T17:54:35.413Z,41.04
2018-05-12T17:57:01.691Z,41.13
2018-05-12T17:59:27.958Z,41.27
2018-05-12T18:01:54.306Z,41.52
2018-05-12T18:04:20.683Z,41.45
2018-05-12T18:06:46.982Z,41.76
2018-05-12T18:09:13.381Z,41.86
2018-05-12T18:11:39.727Z,42.04
2018-05-12T18:14:06.153Z,42.21
2018-05-12T18:16:32.474Z,42.12
2018-05-12T18:18:58.765Z,42.37
2018-05-12T18:21:25.109Z,42.59
2018-05-12T18:23:51.455Z,42.79
2018-05-12T18:26:17.850Z,42.81
2018-05-12T18:28:44.200Z,43.06
2018-05-12T18:31:10.598Z,43.27
2018-05-12T18:33:36.910Z,43.34
2018-05-12T18:36:03.322Z,43.46
2018-05-12T18:38:29.617Z,43.67
2018-05-12T18:40:56.082Z,43.80
2018-05-12T18:43:22.407Z,44.05
2018-05-12T18:45:48.830Z,44.35
2018-05-12T18:48:15.102Z,44.67
2018-05-12T18:50:41.432Z,44.85
2018-05-12T18:53:07.702Z,45.16
2018-05-12T18:55:34.215Z,45.20
2018-05-12T18:58:00.565Z,45.68
2018-05-12T19:00:26.895Z,45.97
2018-05-12T19:02:53.274Z,45.71
2018-05-12T19:05:19.585Z,46.14
2018-05-12T19:07:45.850Z,46.44
2018-05-12T19:10:15.415Z,46.52
2018-05-12T19:12:41.687Z,46.88
2018-05-12T19:15:07.995Z,47.06
2018-05-12T19:17:34.291Z,46.94
2018-05-12T19:20:00.546Z,47.45
2018-05-12T19:22:27.103Z,47.36
2018-05-12T19:24:53.383Z,47.98
2018-05-12T19:27:19.707Z,48.51
2018-05-12T19:29:45.975Z,48.86
2018-05-12T19:32:12.215Z,49.34
2018-05-12T19:34:38.454Z,49.65
2018-05-12T19:37:04.731Z,49.74
2018-05-12T19:39:30.983Z,49.88
2018-05-12T19:41:57.218Z,50.24
2018-05-12T19:44:23.497Z,50.00
2018-05-12T19:46:49.766Z,49.76
2018-05-12T19:49:16.003Z,49.61
2018-05-12T19:51:42.279Z,49.30
2018-05-12T19:54:08.540Z,48.84
2018-05-12T19:56:34.868Z,48.53
2018-05-12T19:59:01.163Z,48.48
2018-05-12T20:01:27.410Z,48.13
2018-05-12T20:03:53.725Z,48.21
2018-05-12T20:06:19.939Z,48.18
2018-05-12T20:08:46.238Z,48.11
2018-05-12T20:11:12.487Z,48.11
2018-05-12T20:13:38.726Z,48.18
2018-05-12T20:16:04.999Z,48.29
2018-05-12T20:18:31.278Z,48.23
2018-05-12T20:20:57.552Z,48.12
2018-05-12T20:23:23.787Z,48.13
2018-05-12T20:25:50.044Z,48.24
2018-05-12T20:28:16.323Z,48.29
2018-05-12T20:30:42.560Z,48.42
2018-05-12T20:33:08.803Z,48.65
2018-05-12T20:35:35.055Z,48.60
2018-05-12T20:38:01.314Z,48.69
2018-05-12T20:40:27.611Z,48.70
2018-05-12T20:42:53.846Z,48.82
2018-05-12T20:45:20.106Z,48.94
2018-05-12T20:47:46.373Z,48.88
2018-05-12T20:50:12.578Z,49.09
2018-05-12T20:52:38.919Z,49.20
2018-05-12T20:55:05.146Z,49.68
2018-05-12T20:57:31.543Z,49.00
2018-05-12T20:59:57.787Z,49.16
2018-05-12T21:02:24.019Z,49.36
2018-05-12T21:04:50.338Z,49.55
2018-05-12T21:07:16.574Z,49.99
2018-05-12T21:09:42.936Z,50.10
2018-05-12T21:12:09.249Z,50.20
2018-05-12T21:14:35.491Z,49.94
2018-05-12T21:17:01.798Z,50.48
2018-05-12T21:19:28.027Z,50.53
2018-05-12T21:21:54.315Z,50.98
2018-05-12T21:24:20.568Z,51.21
2018-05-12T21:26:46.814Z,51.20
2018-05-12T21:29:13.151Z,51.56
2018-05-12T21:31:39.418Z,51.70
2018-05-12T21:34:05.701Z,51.64
2018-05-12T21:36:31.982Z,52.00
2018-05-12T21:38:58.222Z,52.19
2018-05-12T21:41:24.522Z,52.64
2018-05-12T21:43:50.766Z,52.70
2018-05-12T21:46:17.222Z,52.55
2018-05-12T21:48:43.484Z,53.03
2018-05-12T21:51:09.766Z,53.06
2018-05-12T21:53:36.014Z,52.78
2018-05-12T21:56:02.295Z,53.33
2018-05-12T21:58:28.920Z,53.45
2018-05-12T22:00:55.187Z,53.39
2018-05-12T22:03:21.654Z,53.70
2018-05-12T22:05:47.942Z,53.72
2018-05-12T22:08:14.275Z,54.22
2018-05-12T22:10:40.698Z,54.52
2018-05-12T22:13:06.994Z,54.55
2018-05-12T22:15:33.748Z,54.58
2018-05-12T22:18:00.033Z,54.77
2018-05-12T22:20:26.267Z,55.00
2018-05-12T22:22:52.530Z,54.94
2018-05-12T22:25:18.788Z,54.99
2018-05-12T22:27:45.083Z,54.94
2018-05-12T22:30:11.360Z,55.42
2018-05-12T22:32:37.583Z,55.50
2018-05-12T22:35:03.902Z,55.61
2018-05-12T22:37:30.264Z,55.58
2018-05-12T22:39:56.618Z,55.63
2018-05-12T22:42:22.898Z,55.52
2018-05-12T22:44:49.127Z,55.46
2018-05-12T22:47:15.420Z,55.63
2018-05-12T22:49:41.802Z,55.84
2018-05-12T22:52:08.043Z,55.93
2018-05-12T22:54:34.355Z,56.20
2018-05-12T22:57:00.585Z,56.24
2018-05-12T22:59:26.863Z,55.99
2018-05-12T23:01:53.099Z,55.99
2018-05-12T23:04:19.347Z,56.10
2018-05-12T23:06:45.602Z,56.56
2018-05-12T23:09:11.838Z,56.69
2018-05-12T23:11:38.150Z,56.57
2018-05-12T23:14:04.390Z,56.80
2018-05-12T23:16:30.662Z,56.55
2018-05-12T23:18:57.246Z,56.59
2018-05-12T23:21:23.517Z,56.95
2018-05-12T23:23:49.779Z,56.67
2018-05-12T23:26:16.009Z,56.58
2018-05-12T23:28:42.255Z,57.07
2018-05-12T23:31:08.543Z,57.17
2018-05-12T23:33:34.818Z,57.38
2018-05-12T23:36:01.067Z,57.23
2018-05-12T23:38:27.348Z,57.50
2018-05-12T23:40:53.579Z,57.79
2018-05-12T23:43:19.826Z,57.84
2018-05-12T23:45:46.158Z,58.01
2018-05-12T23:48:12.417Z,58.06
2018-05-12T23:50:38.670Z,58.08
2018-05-12T23:53:04.950Z,57.90
2018-05-12T23:55:31.195Z,57.98
2018-05-12T23:57:57.454Z,58.28
